ADDS TAF Board (Experimental) INFO Settings

IDs: Format: Expanded Condensed

KIAD - Washington/Dulles In, VA, US

Issued at 1139 UTC 01 Apr 2015
Updated at: 1311 UTC 01 Apr 2015
Time1252Z 01/14Z 01/15Z 01/16Z 01/17Z 01/18Z 01/19Z 01/20Z 01/21Z 01/22Z 01/23Z 02/00Z 02/01Z 02/02Z
Type OBS PRVL PRVL PRVL PRVL PRVL PRVL PRVL PRVL PRVL PRVL PRVL PRVL PRVL
VIS 10 >6 >6 >6 >6 >6 >6 >6 >6 >6 >6 >6 >6 >6
CIG -- -- -- -- -- -- -- -- -- -- -- -- -- --
Cover CLR SKC SKC SKC SKC SKC SKC SKC SKC SKC FEW FEW FEW FEW
FltCat VFR VFR VFR VFR VFR VFR VFR VFR VFR VFR VFR VFR VFR VFR
WX -- -- -- -- -- -- -- -- -- -- -- -- -- --
WDir 330 300 300 300 300 300 300 300 300 300 70 70 70 70
WSpd 8 6 6 6 6 6 6 6 6 6 4 4 4 4
WGst -- -- -- -- -- -- -- -- -- -- -- -- -- --
R01/19
XWnd 4 5 5 5 5 5 5 5 5 5 -4 -4 -4 -4
HWnd 7 3 3 3 3 3 3 3 3 3 1 1 1 1
R12/30
XWnd 5 1 1 1 1 1 1 1 1 1 3 3 3 3
HWnd -6 -6 -6 -6 -6 -6 -6 -6 -6 -6 3 3 3 3

NOTE: TEMPO conditions in [brackets]. Keep in mind TEMPO conditions might be better (lower impact) than prevailing conditions.

Raw TAF
KIAD 011139Z 0112/0218 30006KT P6SM SKC
  FM012300 07004KT P6SM FEW250
  FM021400 19012KT P6SM SKC


Raw METAR
KIAD 011252Z 33008KT 10SM CLR 05/M03 A3014 RMK AO2 SLP206 T00501028
KIAD 011152Z 30004KT 10SM CLR 02/M03 A3011 RMK AO2 SLP196 70001 T00221028 10044 21006 53035
KIAD 011052Z 30006KT 10SM CLR 00/M04 A3007 RMK AO2 SLP182 T00001039

METAR Board
Radar Display
Forecast Discussion

TAF Board Legend

Potential Impact
Threat None Slight Moderate High
Visibility (sm) ≥5.1 5.1>X≥3 3>X≥1 <1
Ceiling (100 ft) ≥30.1 30.1>X≥10 10>X≥5 <5
Wind Speed (kt) <10 10≤X<20 20≤X<30 ≥30
Wind Gust (kt) <15 15≤X<25 25≤X<35 ≥35
Weather No Wx Reported VCTS,-TS,-FZRA,SN TS,FZRA +TS,+FZRA,+SN